Daytona Beach, Florida
Current Conditions -  °F | °C
As of 3:53 AM on Wednesday 22 Oct 2014 (Local Time) from KDAB Reporting Station
Haze Haze  
Wind Chill: 19°   Ceiling: Unl
Heat Index: 19°   Visibility: 4mi
Dew Point: 19°   Wind: 5mph
Humidity: 100%   Direction: 300°WNW
Pressure: 29.93"   Gusts: NA
Location:  29.2°N, 81.04°W
Report Text: KDAB 220753Z 30004KT 4SM BR FEW002 FEW250 19/19 A2993 RMK AO2 SLP134 T01940194
Loading
Personal Weather Stations






























Interactive Weather Map
Tropical Storm Tracking
New forecast layout! Learn more

10-Day Weather Forecast

Advertisements
Track Severe Weather on mobile